Middle Georgia Regional Airport
KMCN : now visible

Airfield :











YOU CAN JOIN US ON...

 
LOGIN :

Register | Disclaimer

   EN    FR    IT 

 









Legend :    VFR   Marginal VFR   IFR   Intensive IFR   Very Intensive IFR
Visi :
Ceiling :
>= 8 km
>= 3000ft
5 to 8 km
1000 to 3000 ft
1500m to 5 km
500 to 1000 ft
800 to 1500m
200 to 500 ft
< 800m
< 200 ft
Symbols :   Thunderstorms  Fog  Heavy snow  Heavy precipitations  Wind > 20 kt






- Airport Elevation : 354 ft
- IATA code : MCN


KMCN - Middle Georgia Regional

CURRENT METAR :
  • 120153Z AUTO 04008KT 10SM CLR 04/M01 A3047 RMK AO2 SLP319 T00441006

EXPIRED METARs :
  • 120053Z AUTO 03006KT 10SM FEW032 04/M01 A3046 RMK AO2 SLP315 T00441006
  • 112353Z 01004KT 10SM CLR 06/M01 A3045 RMK AO2 SLP312 T00611011 10133 20056 53014

TAF KMCN
Valid from the 12 at 00:00 until the 13 at 00:00 UTC


112320Z 1200/1224 02005KT P6SM FEW250
FM121200 07009KT P6SM SCT250
FM121600 08011G18KT P6SM SCT080 BKN250
FM122000 09010KT P6SM VCSH SCT040 BKN080
PROB30 1221/1224 5SM -SHRA SCT030 BKN050



MET'MAP, your aeronautical weather chart ! - Copyright ORBIFLY December 2007 - Disclaimer

ORBIFLY MET'MAP TEAM :

Programming & Development : Alexandra Zaïnal
Concept & original design : Baudouin d'Aumeries
Assistance for programming : Marc-Olivier Méhu
Technical & hardware support : Manuel Goepfert

Contact : metmap@orbifly.com




SOURCES & CREDITS :

   NOAA       Earth
Advisory